Map

Track Data

SID SEASON NUMBER BASIN SUBBASIN NAME ISO_TIME NATURE LAT LON WMO_WIND WMO_PRES WMO_AGENCY TRACK_TYPE DIST2LAND LANDFALL IFLAG USA_AGENCY USA_ATCF_ID USA_LAT USA_LON USA_RECORD USA_STATUS USA_WIND USA_PRES USA_SSHS USA_R34_NE USA_R34_SE USA_R34_SW USA_R34_NW USA_R50_NE USA_R50_SE USA_R50_SW USA_R50_NW USA_R64_NE USA_R64_SE USA_R64_SW USA_R64_NW USA_POCI USA_ROCI USA_RMW USA_EYE TOKYO_LAT TOKYO_LON TOKYO_GRADE TOKYO_WIND TOKYO_PRES TOKYO_R50_DIR TOKYO_R50_LONG TOKYO_R50_SHORT TOKYO_R30_DIR TOKYO_R30_LONG TOKYO_R30_SHORT TOKYO_LAND CMA_LAT CMA_LON CMA_CAT CMA_WIND CMA_PRES HKO_LAT HKO_LON HKO_CAT HKO_WIND HKO_PRES NEWDELHI_LAT NEWDELHI_LON NEWDELHI_GRADE NEWDELHI_WIND NEWDELHI_PRES NEWDELHI_CI NEWDELHI_DP NEWDELHI_POCI REUNION_LAT REUNION_LON REUNION_TYPE REUNION_WIND REUNION_PRES REUNION_TNUM REUNION_CI REUNION_RMW REUNION_R34_NE REUNION_R34_SE REUNION_R34_SW REUNION_R34_NW REUNION_R50_NE REUNION_R50_SE REUNION_R50_SW REUNION_R50_NW REUNION_R64_NE REUNION_R64_SE REUNION_R64_SW REUNION_R64_NW BOM_LAT BOM_LON BOM_TYPE BOM_WIND BOM_PRES BOM_TNUM BOM_CI BOM_RMW BOM_R34_NE BOM_R34_SE BOM_R34_SW BOM_R34_NW BOM_R50_NE BOM_R50_SE BOM_R50_SW BOM_R50_NW BOM_R64_NE BOM_R64_SE BOM_R64_SW BOM_R64_NW BOM_ROCI BOM_POCI BOM_EYE BOM_POS_METHOD BOM_PRES_METHOD NADI_LAT NADI_LON NADI_CAT NADI_WIND NADI_PRES WELLINGTON_LAT WELLINGTON_LON WELLINGTON_WIND WELLINGTON_PRES DS824_LAT DS824_LON DS824_STAGE DS824_WIND DS824_PRES TD9636_LAT TD9636_LON TD9636_STAGE TD9636_WIND TD9636_PRES TD9635_LAT TD9635_LON TD9635_WIND TD9635_PRES TD9635_ROCI NEUMANN_LAT NEUMANN_LON NEUMANN_CLASS NEUMANN_WIND NEUMANN_PRES MLC_LAT MLC_LON MLC_CLASS MLC_WIND MLC_PRES USA_GUST BOM_GUST BOM_GUST_PER REUNION_GUST REUNION_GUST_PER USA_SEAHGT USA_SEARAD_NE USA_SEARAD_SE USA_SEARAD_SW USA_SEARAD_NW STORM_SPEED STORM_DIR
1992208N13246 1992 57 EP MM HOWARD 1992-07-26 06:00:00 TS 13.1000 -114.000 25 1009 hurdat_epa main 1175 1172 O_____________ hurdat_epa EP091992 13.1000 -114.000 TD 25 1009 -1 13 284
1992208N13246 1992 57 EP MM HOWARD 1992-07-26 09:00:00 TS 13.2578 -114.655 main 1183 1183 P_____________ EP091992 13.2578 -114.655 TD 25 1009 -1 13 283
1992208N13246 1992 57 EP MM HOWARD 1992-07-26 12:00:00 TS 13.4000 -115.300 25 1009 hurdat_epa main 1201 1201 O_____________ hurdat_epa EP091992 13.4000 -115.300 TD 25 1009 -1 13 282
1992208N13246 1992 57 EP MM HOWARD 1992-07-26 15:00:00 TS 13.5149 -115.923 main 1222 1222 P_____________ EP091992 13.5149 -115.923 TD 27 1008 -1 12 280
1992208N13246 1992 57 EP MM HOWARD 1992-07-26 18:00:00 TS 13.6000 -116.500 30 1008 hurdat_epa main 1245 1245 O_____________ hurdat_epa EP091992 13.6000 -116.500 TD 30 1008 -1 11 278
1992208N13246 1992 57 EP MM HOWARD 1992-07-26 21:00:00 TS 13.6648 -117.023 main 1266 1266 P_____________ EP091992 13.6648 -117.023 TD 30 1008 -1 10 276
1992208N13246 1992 57 EP MM HOWARD 1992-07-27 00:00:00 TS 13.7000 -117.500 30 1008 hurdat_epa main 1297 1297 O_____________ hurdat_epa EP091992 13.7000 -117.500 TD 30 1008 -1 9 274
1992208N13246 1992 57 EP MM HOWARD 1992-07-27 03:00:00 TS 13.7225 -117.972 main 1330 1330 P_____________ EP091992 13.7225 -117.972 TD 30 1007 -1 9 270
1992208N13246 1992 57 EP MM HOWARD 1992-07-27 06:00:00 TS 13.7000 -118.400 30 1007 hurdat_epa main 1357 1357 O_____________ hurdat_epa EP091992 13.7000 -118.400 TD 30 1007 -1 8 262
1992208N13246 1992 57 EP MM HOWARD 1992-07-27 09:00:00 TS 13.6148 -118.743 main 1387 1387 P_____________ EP091992 13.6148 -118.743 TD 32 1006 -1 7 254
1992208N13246 1992 57 EP MM HOWARD 1992-07-27 12:00:00 TS 13.5000 -119.100 35 1005 hurdat_epa main 1423 1423 O_____________ hurdat_epa EP091992 13.5000 -119.100 TS 35 1005 0 8 256
1992208N13246 1992 57 EP MM HOWARD 1992-07-27 15:00:00 TS 13.4075 -119.570 main 1468 1468 P_____________ EP091992 13.4075 -119.570 TS 37 1002 0 10 258
1992208N13246 1992 57 EP MM HOWARD 1992-07-27 18:00:00 TS 13.3000 -120.100 40 1000 hurdat_epa main 1513 1513 O_____________ hurdat_epa EP091992 13.3000 -120.100 TS 40 1000 0 11 257
1992208N13246 1992 57 EP MM HOWARD 1992-07-27 21:00:00 TS 13.1575 -120.650 main 1558 1566 P_____________ EP091992 13.1575 -120.650 TS 45 997 0 11 254
1992208N13246 1992 57 EP MM HOWARD 1992-07-28 00:00:00 TS 13.0000 -121.200 50 995 hurdat_epa main 1620 1620 O_____________ hurdat_epa EP091992 13.0000 -121.200 TS 50 995 0 11 253
1992208N13246 1992 57 EP MM HOWARD 1992-07-28 03:00:00 TS 12.8424 -121.707 main 1669 1669 P_____________ EP091992 12.8424 -121.707 TS 52 994 0 10 253
1992208N13246 1992 57 EP MM HOWARD 1992-07-28 06:00:00 TS 12.7000 -122.200 55 993 hurdat_epa main 1711 1711 O_____________ hurdat_epa EP091992 12.7000 -122.200 TS 55 993 0 10 255
1992208N13246 1992 57 EP MM HOWARD 1992-07-28 09:00:00 TS 12.5850 -122.722 main 1752 1752 P_____________ EP091992 12.5850 -122.722 TS 55 993 0 10 258
1992208N13246 1992 57 EP MM HOWARD 1992-07-28 12:00:00 TS 12.5000 -123.200 55 993 hurdat_epa main 1795 1795 O_____________ hurdat_epa EP091992 12.5000 -123.200 TS 55 993 0 8 260
1992208N13246 1992 57 EP MM HOWARD 1992-07-28 15:00:00 TS 12.4348 -123.565 main 1831 1831 P_____________ EP091992 12.4348 -123.565 TS 55 992 0 7 262
1992208N13246 1992 57 EP MM HOWARD 1992-07-28 18:00:00 TS 12.4000 -123.900 55 992 hurdat_epa main 1852 1852 O_____________ hurdat_epa EP091992 12.4000 -123.900 TS 55 992 0 7 265
1992208N13246 1992 57 EP MM HOWARD 1992-07-28 21:00:00 TS 12.3774 -124.285 main 1881 1881 P_____________ EP091992 12.3774 -124.285 TS 52 992 0 8 270
1992208N13246 1992 57 EP MM HOWARD 1992-07-29 00:00:00 TS 12.4000 -124.700 50 993 hurdat_epa main 1909 1909 O_____________ hurdat_epa EP091992 12.4000 -124.700 TS 50 993 0 8 277
1992208N13246 1992 57 EP MM HOWARD 1992-07-29 03:00:00 TS 12.4849 -125.127 main 1931 1931 P_____________ EP091992 12.4849 -125.127 TS 50 995 0 9 283
1992208N13246 1992 57 EP MM HOWARD 1992-07-29 06:00:00 TS 12.6000 -125.600 50 997 hurdat_epa main 1960 1960 O_____________ hurdat_epa EP091992 12.6000 -125.600 TS 50 997 0 10 282
1992208N13246 1992 57 EP MM HOWARD 1992-07-29 09:00:00 TS 12.6925 -126.135 main 1990 1990 P_____________ EP091992 12.6925 -126.135 TS 47 998 0 11 281
1992208N13246 1992 57 EP MM HOWARD 1992-07-29 12:00:00 TS 12.8000 -126.700 45 1000 hurdat_epa main 2029 2029 O_____________ hurdat_epa EP091992 12.8000 -126.700 TS 45 1000 0 11 283
1992208N13246 1992 57 EP MM HOWARD 1992-07-29 15:00:00 TS 12.9423 -127.243 main 2061 2061 P_____________ EP091992 12.9423 -127.243 TS 45 1000 0 11 286
1992208N13246 1992 57 EP MM HOWARD 1992-07-29 18:00:00 TS 13.1000 -127.800 45 1000 hurdat_epa main 2095 2095 O_____________ hurdat_epa EP091992 13.1000 -127.800 TS 45 1000 0 12 285
1992208N13246 1992 57 EP MM HOWARD 1992-07-29 21:00:00 TS 13.2500 -128.400 main 2135 2127 P_____________ EP091992 13.2500 -128.400 TS 45 1000 0 12 284
1992208N13246 1992 57 EP MM HOWARD 1992-07-30 00:00:00 TS 13.4000 -129.000 45 1000 hurdat_epa main 2159 2159 O_____________ hurdat_epa EP091992 13.4000 -129.000 TS 45 1000 0 11 284
1992208N13246 1992 57 EP MM HOWARD 1992-07-30 03:00:00 TS 13.5271 -129.528 main 2186 2185 P_____________ EP091992 13.5271 -129.528 TS 42 1000 0 11 286
1992208N13246 1992 57 EP MM HOWARD 1992-07-30 06:00:00 TS 13.7000 -130.100 40 1000 hurdat_epa main 2213 2212 O_____________ hurdat_epa EP091992 13.7000 -130.100 TS 40 1000 0 13 289
1992208N13246 1992 57 EP MM HOWARD 1992-07-30 09:00:00 TS 13.9701 -130.827 main 2240 2240 P_____________ EP091992 13.9701 -130.827 TS 37 1002 0 16 292
1992208N13246 1992 57 EP MM HOWARD 1992-07-30 12:00:00 TS 14.3000 -131.600 35 1005 hurdat_epa main 2278 2278 O_____________ hurdat_epa EP091992 14.3000 -131.600 TS 35 1005 0 16 295
1992208N13246 1992 57 EP MM HOWARD 1992-07-30 15:00:00 TS 14.6335 -132.291 main 2310 2303 P_____________ EP091992 14.6193 -132.263 TS 30 1006 -1 15 297
1992208N13246 1992 57 EP MM HOWARD 1992-07-30 18:00:00 TS 15.0000 -133.000 25 1008 hurdat_epa main 2337 2262 O_____________ hurdat_epa EP091992 15.0000 -133.000 TD 25 1008 -1 18 298
1992208N13246 1992 57 EP MM HOWARD 1992-07-30 21:00:00 NR 15.4739 -133.936 main 2259 2142 P_____________ EP091992 15.4739 -133.936 TD 22 -1 22 297
1992208N13246 1992 57 EP MM HOWARD 1992-07-31 00:00:00 NR 16.0000 -135.000 main 2132 O_____________ jtwc_ep EP091992 16.0000 -135.000 20 23 297

About IBTrACS Database

This database is a web-friendly format of International Best Track Archive for Climate Stewardship (IBTrACS), a global best track data archive curated by NOAA dating back to 1842.

Updated: 2021-10-25